sensor_id;sensor_type;location;lat;lon;timestamp;pressure;altitude;pressure_sealevel;temperature
15626;BMP180;7912;51.376;6.126;2022-08-21T00:00:27;101423.00;;;19.90
15626;BMP180;7912;51.376;6.126;2022-08-21T00:03:03;101424.00;;;19.90
15626;BMP180;7912;51.376;6.126;2022-08-21T00:05:37;101422.00;;;19.90
15626;BMP180;7912;51.376;6.126;2022-08-21T00:08:05;101407.00;;;19.80
15626;BMP180;7912;51.376;6.126;2022-08-21T00:10:33;101418.00;;;19.80
15626;BMP180;7912;51.376;6.126;2022-08-21T00:13:04;101419.00;;;19.80
15626;BMP180;7912;51.376;6.126;2022-08-21T00:15:34;101409.00;;;19.80
15626;BMP180;7912;51.376;6.126;2022-08-21T00:18:05;101410.00;;;19.80
15626;BMP180;7912;51.376;6.126;2022-08-21T00:20:34;101398.00;;;19.80
15626;BMP180;7912;51.376;6.126;2022-08-21T00:23:02;101403.00;;;19.70
15626;BMP180;7912;51.376;6.126;2022-08-21T00:25:30;101410.00;;;19.70
15626;BMP180;7912;51.376;6.126;2022-08-21T00:27:57;101402.00;;;19.70
15626;BMP180;7912;51.376;6.126;2022-08-21T00:30:26;101400.00;;;19.70
15626;BMP180;7912;51.376;6.126;2022-08-21T00:32:56;101402.00;;;19.70
15626;BMP180;7912;51.376;6.126;2022-08-21T00:35:31;101399.00;;;19.60
15626;BMP180;7912;51.376;6.126;2022-08-21T00:37:59;101395.00;;;19.60
15626;BMP180;7912;51.376;6.126;2022-08-21T00:40:37;101393.00;;;19.60
15626;BMP180;7912;51.376;6.126;2022-08-21T00:43:10;101398.00;;;19.60
15626;BMP180;7912;51.376;6.126;2022-08-21T00:45:38;101392.00;;;19.50
15626;BMP180;7912;51.376;6.126;2022-08-21T00:48:05;101400.00;;;19.50
15626;BMP180;7912;51.376;6.126;2022-08-21T00:50:38;101405.00;;;19.50
15626;BMP180;7912;51.376;6.126;2022-08-21T00:53:10;101407.00;;;19.50
15626;BMP180;7912;51.376;6.126;2022-08-21T00:55:37;101402.00;;;19.50
15626;BMP180;7912;51.376;6.126;2022-08-21T00:58:08;101401.00;;;19.50
15626;BMP180;7912;51.376;6.126;2022-08-21T01:00:40;101406.00;;;19.50
15626;BMP180;7912;51.376;6.126;2022-08-21T01:03:13;101396.00;;;19.50
15626;BMP180;7912;51.376;6.126;2022-08-21T01:05:42;101400.00;;;19.50
15626;BMP180;7912;51.376;6.126;2022-08-21T01:08:11;101402.00;;;19.40
15626;BMP180;7912;51.376;6.126;2022-08-21T01:10:39;101396.00;;;19.40
15626;BMP180;7912;51.376;6.126;2022-08-21T01:13:09;101394.00;;;19.40
15626;BMP180;7912;51.376;6.126;2022-08-21T01:15:42;101398.00;;;19.40
15626;BMP180;7912;51.376;6.126;2022-08-21T01:18:12;101392.00;;;19.40
15626;BMP180;7912;51.376;6.126;2022-08-21T01:23:12;101398.00;;;19.30
15626;BMP180;7912;51.376;6.126;2022-08-21T01:25:40;101409.00;;;19.30
15626;BMP180;7912;51.376;6.126;2022-08-21T01:28:13;101395.00;;;19.30
15626;BMP180;7912;51.376;6.126;2022-08-21T01:30:43;101402.00;;;19.30
15626;BMP180;7912;51.376;6.126;2022-08-21T01:33:11;101397.00;;;19.30
15626;BMP180;7912;51.376;6.126;2022-08-21T01:35:38;101403.00;;;19.20
15626;BMP180;7912;51.376;6.126;2022-08-21T01:38:06;101406.00;;;19.20
15626;BMP180;7912;51.376;6.126;2022-08-21T01:40:33;101396.00;;;19.20
15626;BMP180;7912;51.376;6.126;2022-08-21T01:43:01;101400.00;;;19.20
15626;BMP180;7912;51.376;6.126;2022-08-21T01:45:30;101403.00;;;19.10
15626;BMP180;7912;51.376;6.126;2022-08-21T01:47:57;101407.00;;;19.10
15626;BMP180;7912;51.376;6.126;2022-08-21T01:50:24;101402.00;;;19.10
15626;BMP180;7912;51.376;6.126;2022-08-21T01:52:52;101400.00;;;19.10
15626;BMP180;7912;51.376;6.126;2022-08-21T01:55:23;101406.00;;;19.10
15626;BMP180;7912;51.376;6.126;2022-08-21T01:57:50;101406.00;;;19.10
15626;BMP180;7912;51.376;6.126;2022-08-21T02:00:22;101397.00;;;19.00
15626;BMP180;7912;51.376;6.126;2022-08-21T02:02:52;101393.00;;;19.00
15626;BMP180;7912;51.376;6.126;2022-08-21T02:05:38;101389.00;;;19.00
15626;BMP180;7912;51.376;6.126;2022-08-21T02:08:07;101384.00;;;18.90
15626;BMP180;7912;51.376;6.126;2022-08-21T02:10:34;101380.00;;;18.90
15626;BMP180;7912;51.376;6.126;2022-08-21T02:13:02;101373.00;;;18.90
15626;BMP180;7912;51.376;6.126;2022-08-21T02:15:31;101391.00;;;18.90
15626;BMP180;7912;51.376;6.126;2022-08-21T02:18:01;101378.00;;;18.90
15626;BMP180;7912;51.376;6.126;2022-08-21T02:20:37;101382.00;;;18.80
15626;BMP180;7912;51.376;6.126;2022-08-21T02:23:07;101381.00;;;18.80
15626;BMP180;7912;51.376;6.126;2022-08-21T02:25:36;101383.00;;;18.80
15626;BMP180;7912;51.376;6.126;2022-08-21T02:28:09;101380.00;;;18.80
15626;BMP180;7912;51.376;6.126;2022-08-21T02:30:43;101383.00;;;18.80
15626;BMP180;7912;51.376;6.126;2022-08-21T02:33:11;101382.00;;;18.80
15626;BMP180;7912;51.376;6.126;2022-08-21T02:35:40;101374.00;;;18.70
15626;BMP180;7912;51.376;6.126;2022-08-21T02:38:15;101384.00;;;18.70
15626;BMP180;7912;51.376;6.126;2022-08-21T02:40:47;101389.00;;;18.70
15626;BMP180;7912;51.376;6.126;2022-08-21T02:43:19;101386.00;;;18.70
15626;BMP180;7912;51.376;6.126;2022-08-21T02:45:50;101383.00;;;18.70
15626;BMP180;7912;51.376;6.126;2022-08-21T02:48:23;101380.00;;;18.70
15626;BMP180;7912;51.376;6.126;2022-08-21T02:51:05;101376.00;;;18.70
15626;BMP180;7912;51.376;6.126;2022-08-21T02:53:33;101373.00;;;18.70
15626;BMP180;7912;51.376;6.126;2022-08-21T02:56:06;101366.00;;;18.70
15626;BMP180;7912;51.376;6.126;2022-08-21T02:58:45;101376.00;;;18.70
15626;BMP180;7912;51.376;6.126;2022-08-21T03:01:13;101370.00;;;18.60
15626;BMP180;7912;51.376;6.126;2022-08-21T03:03:43;101377.00;;;18.60
15626;BMP180;7912;51.376;6.126;2022-08-21T03:06:15;101361.00;;;18.60
15626;BMP180;7912;51.376;6.126;2022-08-21T03:08:43;101361.00;;;18.60
15626;BMP180;7912;51.376;6.126;2022-08-21T03:11:13;101365.00;;;18.60
15626;BMP180;7912;51.376;6.126;2022-08-21T03:13:41;101356.00;;;18.50
15626;BMP180;7912;51.376;6.126;2022-08-21T03:16:09;101364.00;;;18.50
15626;BMP180;7912;51.376;6.126;2022-08-21T03:18:37;101362.00;;;18.50
15626;BMP180;7912;51.376;6.126;2022-08-21T03:21:06;101363.00;;;18.50
15626;BMP180;7912;51.376;6.126;2022-08-21T03:23:34;101356.00;;;18.50
15626;BMP180;7912;51.376;6.126;2022-08-21T03:26:01;101360.00;;;18.50
15626;BMP180;7912;51.376;6.126;2022-08-21T03:28:28;101367.00;;;18.50
15626;BMP180;7912;51.376;6.126;2022-08-21T03:30:56;101368.00;;;18.50
15626;BMP180;7912;51.376;6.126;2022-08-21T03:33:23;101365.00;;;18.40
15626;BMP180;7912;51.376;6.126;2022-08-21T03:36:02;101358.00;;;18.40
15626;BMP180;7912;51.376;6.126;2022-08-21T03:38:35;101356.00;;;18.40
15626;BMP180;7912;51.376;6.126;2022-08-21T03:41:04;101377.00;;;18.40
15626;BMP180;7912;51.376;6.126;2022-08-21T03:43:32;101361.00;;;18.40
15626;BMP180;7912;51.376;6.126;2022-08-21T03:46:05;101373.00;;;18.40
15626;BMP180;7912;51.376;6.126;2022-08-21T03:48:35;101371.00;;;18.40
15626;BMP180;7912;51.376;6.126;2022-08-21T03:51:03;101373.00;;;18.40
15626;BMP180;7912;51.376;6.126;2022-08-21T03:53:31;101373.00;;;18.40
15626;BMP180;7912;51.376;6.126;2022-08-21T03:55:59;101375.00;;;18.30
15626;BMP180;7912;51.376;6.126;2022-08-21T03:58:28;101369.00;;;18.30
15626;BMP180;7912;51.376;6.126;2022-08-21T04:00:59;101374.00;;;18.30
15626;BMP180;7912;51.376;6.126;2022-08-21T04:03:27;101381.00;;;18.30
15626;BMP180;7912;51.376;6.126;2022-08-21T04:05:55;101378.00;;;18.30
15626;BMP180;7912;51.376;6.126;2022-08-21T04:08:22;101364.00;;;18.20
15626;BMP180;7912;51.376;6.126;2022-08-21T04:10:52;101380.00;;;18.20
15626;BMP180;7912;51.376;6.126;2022-08-21T04:13:21;101372.00;;;18.20
15626;BMP180;7912;51.376;6.126;2022-08-21T04:15:48;101374.00;;;18.20
15626;BMP180;7912;51.376;6.126;2022-08-21T04:18:16;101370.00;;;18.10
15626;BMP180;7912;51.376;6.126;2022-08-21T04:20:47;101379.00;;;18.10
15626;BMP180;7912;51.376;6.126;2022-08-21T04:23:19;101372.00;;;18.10
15626;BMP180;7912;51.376;6.126;2022-08-21T04:25:54;101369.00;;;18.10
15626;BMP180;7912;51.376;6.126;2022-08-21T04:28:24;101373.00;;;18.10
15626;BMP180;7912;51.376;6.126;2022-08-21T04:30:56;101369.00;;;18.00
15626;BMP180;7912;51.376;6.126;2022-08-21T04:33:26;101383.00;;;18.00
15626;BMP180;7912;51.376;6.126;2022-08-21T04:35:53;101381.00;;;18.00
15626;BMP180;7912;51.376;6.126;2022-08-21T04:38:21;101378.00;;;18.00
15626;BMP180;7912;51.376;6.126;2022-08-21T04:40:50;101380.00;;;18.00
15626;BMP180;7912;51.376;6.126;2022-08-21T04:43:19;101374.00;;;18.00
15626;BMP180;7912;51.376;6.126;2022-08-21T04:45:50;101384.00;;;18.00
15626;BMP180;7912;51.376;6.126;2022-08-21T04:48:21;101383.00;;;18.00
15626;BMP180;7912;51.376;6.126;2022-08-21T04:53:59;101389.00;;;18.00
15626;BMP180;7912;51.376;6.126;2022-08-21T04:56:40;101375.00;;;18.00
15626;BMP180;7912;51.376;6.126;2022-08-21T04:59:23;101383.00;;;18.00
15626;BMP180;7912;51.376;6.126;2022-08-21T05:01:52;101387.00;;;18.10
15626;BMP180;7912;51.376;6.126;2022-08-21T05:04:26;101385.00;;;18.10
15626;BMP180;7912;51.376;6.126;2022-08-21T05:06:58;101389.00;;;18.10
15626;BMP180;7912;51.376;6.126;2022-08-21T05:09:28;101384.00;;;18.10
15626;BMP180;7912;51.376;6.126;2022-08-21T05:11:56;101387.00;;;18.10
15626;BMP180;7912;51.376;6.126;2022-08-21T05:14:23;101378.00;;;18.20
15626;BMP180;7912;51.376;6.126;2022-08-21T05:16:50;101377.00;;;18.20
15626;BMP180;7912;51.376;6.126;2022-08-21T05:19:18;101383.00;;;18.20
15626;BMP180;7912;51.376;6.126;2022-08-21T05:21:46;101372.00;;;18.30
15626;BMP180;7912;51.376;6.126;2022-08-21T05:24:17;101389.00;;;18.30
15626;BMP180;7912;51.376;6.126;2022-08-21T05:26:45;101390.00;;;18.30
15626;BMP180;7912;51.376;6.126;2022-08-21T05:29:15;101388.00;;;18.30
15626;BMP180;7912;51.376;6.126;2022-08-21T05:31:45;101383.00;;;18.40
15626;BMP180;7912;51.376;6.126;2022-08-21T05:34:18;101385.00;;;18.40
15626;BMP180;7912;51.376;6.126;2022-08-21T05:36:46;101384.00;;;18.40
15626;BMP180;7912;51.376;6.126;2022-08-21T05:39:14;101384.00;;;18.40
15626;BMP180;7912;51.376;6.126;2022-08-21T05:41:41;101386.00;;;18.50
15626;BMP180;7912;51.376;6.126;2022-08-21T05:44:08;101378.00;;;18.50
15626;BMP180;7912;51.376;6.126;2022-08-21T05:46:37;101376.00;;;18.50
15626;BMP180;7912;51.376;6.126;2022-08-21T05:49:04;101384.00;;;18.50
15626;BMP180;7912;51.376;6.126;2022-08-21T05:51:31;101397.00;;;18.60
15626;BMP180;7912;51.376;6.126;2022-08-21T05:54:37;101389.00;;;18.60
15626;BMP180;7912;51.376;6.126;2022-08-21T05:57:05;101382.00;;;18.70
15626;BMP180;7912;51.376;6.126;2022-08-21T05:59:36;101391.00;;;18.70
15626;BMP180;7912;51.376;6.126;2022-08-21T06:02:04;101399.00;;;18.70
15626;BMP180;7912;51.376;6.126;2022-08-21T06:04:37;101400.00;;;18.70
15626;BMP180;7912;51.376;6.126;2022-08-21T06:07:05;101397.00;;;18.70
15626;BMP180;7912;51.376;6.126;2022-08-21T06:09:33;101392.00;;;18.80
15626;BMP180;7912;51.376;6.126;2022-08-21T06:12:18;101408.00;;;18.80
15626;BMP180;7912;51.376;6.126;2022-08-21T06:14:45;101402.00;;;18.80
15626;BMP180;7912;51.376;6.126;2022-08-21T06:17:13;101402.00;;;18.90
15626;BMP180;7912;51.376;6.126;2022-08-21T06:19:41;101404.00;;;18.90
15626;BMP180;7912;51.376;6.126;2022-08-21T06:22:11;101413.00;;;19.00
15626;BMP180;7912;51.376;6.126;2022-08-21T06:24:39;101411.00;;;19.10
15626;BMP180;7912;51.376;6.126;2022-08-21T06:27:06;101405.00;;;19.10
15626;BMP180;7912;51.376;6.126;2022-08-21T06:29:35;101410.00;;;19.10
15626;BMP180;7912;51.376;6.126;2022-08-21T06:32:12;101413.00;;;19.20
15626;BMP180;7912;51.376;6.126;2022-08-21T06:34:42;101401.00;;;19.30
15626;BMP180;7912;51.376;6.126;2022-08-21T06:37:09;101412.00;;;19.30
15626;BMP180;7912;51.376;6.126;2022-08-21T06:39:36;101402.00;;;19.40
15626;BMP180;7912;51.376;6.126;2022-08-21T06:42:15;101407.00;;;19.40
15626;BMP180;7912;51.376;6.126;2022-08-21T06:44:43;101416.00;;;19.60
15626;BMP180;7912;51.376;6.126;2022-08-21T06:47:11;101412.00;;;19.60
15626;BMP180;7912;51.376;6.126;2022-08-21T06:49:38;101404.00;;;19.70
15626;BMP180;7912;51.376;6.126;2022-08-21T06:52:11;101407.00;;;19.80
15626;BMP180;7912;51.376;6.126;2022-08-21T06:54:40;101399.00;;;19.90
15626;BMP180;7912;51.376;6.126;2022-08-21T06:57:07;101401.00;;;20.00
15626;BMP180;7912;51.376;6.126;2022-08-21T06:59:34;101404.00;;;20.10
15626;BMP180;7912;51.376;6.126;2022-08-21T07:02:02;101414.00;;;20.20
15626;BMP180;7912;51.376;6.126;2022-08-21T07:04:30;101408.00;;;20.30
15626;BMP180;7912;51.376;6.126;2022-08-21T07:06:57;101407.00;;;20.40
15626;BMP180;7912;51.376;6.126;2022-08-21T07:09:25;101406.00;;;20.60
15626;BMP180;7912;51.376;6.126;2022-08-21T07:11:55;101420.00;;;20.80
15626;BMP180;7912;51.376;6.126;2022-08-21T07:14:22;101411.00;;;21.00
15626;BMP180;7912;51.376;6.126;2022-08-21T07:16:50;101411.00;;;21.30
15626;BMP180;7912;51.376;6.126;2022-08-21T07:19:18;101420.00;;;21.60
15626;BMP180;7912;51.376;6.126;2022-08-21T07:21:46;101410.00;;;22.00
15626;BMP180;7912;51.376;6.126;2022-08-21T07:24:14;101401.00;;;22.60
15626;BMP180;7912;51.376;6.126;2022-08-21T07:26:41;101398.00;;;23.10
15626;BMP180;7912;51.376;6.126;2022-08-21T07:29:09;101396.00;;;23.60
15626;BMP180;7912;51.376;6.126;2022-08-21T07:31:36;101397.00;;;24.20
15626;BMP180;7912;51.376;6.126;2022-08-21T07:34:03;101383.00;;;24.80
15626;BMP180;7912;51.376;6.126;2022-08-21T07:36:30;101387.00;;;25.20
15626;BMP180;7912;51.376;6.126;2022-08-21T07:38:59;101390.00;;;25.50
15626;BMP180;7912;51.376;6.126;2022-08-21T07:41:28;101385.00;;;26.00
15626;BMP180;7912;51.376;6.126;2022-08-21T07:43:57;101393.00;;;26.40
15626;BMP180;7912;51.376;6.126;2022-08-21T07:46:26;101395.00;;;26.80
15626;BMP180;7912;51.376;6.126;2022-08-21T07:48:53;101388.00;;;27.20
15626;BMP180;7912;51.376;6.126;2022-08-21T07:51:25;101386.00;;;27.70
15626;BMP180;7912;51.376;6.126;2022-08-21T07:53:57;101383.00;;;28.20
15626;BMP180;7912;51.376;6.126;2022-08-21T07:56:26;101380.00;;;28.60
15626;BMP180;7912;51.376;6.126;2022-08-21T07:58:53;101378.00;;;29.00
15626;BMP180;7912;51.376;6.126;2022-08-21T08:01:21;101378.00;;;29.10
15626;BMP180;7912;51.376;6.126;2022-08-21T08:03:49;101375.00;;;28.80
15626;BMP180;7912;51.376;6.126;2022-08-21T08:06:16;101372.00;;;28.20
15626;BMP180;7912;51.376;6.126;2022-08-21T08:08:46;101387.00;;;27.70
15626;BMP180;7912;51.376;6.126;2022-08-21T08:11:13;101388.00;;;27.30
15626;BMP180;7912;51.376;6.126;2022-08-21T08:13:50;101394.00;;;26.80
15626;BMP180;7912;51.376;6.126;2022-08-21T08:16:20;101390.00;;;26.40
15626;BMP180;7912;51.376;6.126;2022-08-21T08:18:47;101384.00;;;26.10
15626;BMP180;7912;51.376;6.126;2022-08-21T08:21:15;101383.00;;;25.90
15626;BMP180;7912;51.376;6.126;2022-08-21T08:23:43;101394.00;;;25.70
15626;BMP180;7912;51.376;6.126;2022-08-21T08:26:12;101397.00;;;25.40
15626;BMP180;7912;51.376;6.126;2022-08-21T08:28:39;101390.00;;;25.30
15626;BMP180;7912;51.376;6.126;2022-08-21T08:31:06;101394.00;;;25.10
15626;BMP180;7912;51.376;6.126;2022-08-21T08:33:33;101391.00;;;25.00
15626;BMP180;7912;51.376;6.126;2022-08-21T08:36:01;101389.00;;;24.90
15626;BMP180;7912;51.376;6.126;2022-08-21T08:38:34;101383.00;;;24.80
15626;BMP180;7912;51.376;6.126;2022-08-21T08:41:20;101385.00;;;24.70
15626;BMP180;7912;51.376;6.126;2022-08-21T08:44:03;101377.00;;;24.60
15626;BMP180;7912;51.376;6.126;2022-08-21T08:46:43;101373.00;;;24.80
15626;BMP180;7912;51.376;6.126;2022-08-21T08:52:03;101371.00;;;25.80
15626;BMP180;7912;51.376;6.126;2022-08-21T08:54:43;101374.00;;;26.50
15626;BMP180;7912;51.376;6.126;2022-08-21T08:57:19;101364.00;;;27.30
15626;BMP180;7912;51.376;6.126;2022-08-21T08:59:51;101359.00;;;28.10
15626;BMP180;7912;51.376;6.126;2022-08-21T09:02:20;101356.00;;;28.80
15626;BMP180;7912;51.376;6.126;2022-08-21T09:04:50;101347.00;;;29.60
15626;BMP180;7912;51.376;6.126;2022-08-21T09:13:55;101340.00;;;31.20
15626;BMP180;7912;51.376;6.126;2022-08-21T09:19:39;101335.00;;;32.30
15626;BMP180;7912;51.376;6.126;2022-08-21T09:22:39;101332.00;;;32.50
15626;BMP180;7912;51.376;6.126;2022-08-21T09:25:21;101331.00;;;32.80
15626;BMP180;7912;51.376;6.126;2022-08-21T09:27:50;101331.00;;;33.10
15626;BMP180;7912;51.376;6.126;2022-08-21T09:30:25;101329.00;;;33.20
15626;BMP180;7912;51.376;6.126;2022-08-21T09:32:52;101334.00;;;33.30
15626;BMP180;7912;51.376;6.126;2022-08-21T09:35:22;101329.00;;;33.50
15626;BMP180;7912;51.376;6.126;2022-08-21T09:38:03;101326.00;;;33.80
15626;BMP180;7912;51.376;6.126;2022-08-21T09:43:18;101324.00;;;33.90
15626;BMP180;7912;51.376;6.126;2022-08-21T09:45:48;101324.00;;;33.80
15626;BMP180;7912;51.376;6.126;2022-08-21T09:48:21;101327.00;;;33.60
15626;BMP180;7912;51.376;6.126;2022-08-21T09:51:08;101324.00;;;33.30
15626;BMP180;7912;51.376;6.126;2022-08-21T09:53:43;101330.00;;;33.50
15626;BMP180;7912;51.376;6.126;2022-08-21T09:56:39;101327.00;;;33.70
15626;BMP180;7912;51.376;6.126;2022-08-21T09:59:30;101330.00;;;33.90
15626;BMP180;7912;51.376;6.126;2022-08-21T10:02:32;101334.00;;;34.10
15626;BMP180;7912;51.376;6.126;2022-08-21T10:05:18;101325.00;;;34.10
15626;BMP180;7912;51.376;6.126;2022-08-21T10:07:46;101332.00;;;34.20
15626;BMP180;7912;51.376;6.126;2022-08-21T10:10:26;101335.00;;;34.20
15626;BMP180;7912;51.376;6.126;2022-08-21T10:13:21;101333.00;;;34.10
15626;BMP180;7912;51.376;6.126;2022-08-21T10:22:21;101327.00;;;34.30
15626;BMP180;7912;51.376;6.126;2022-08-21T10:25:28;101331.00;;;34.30
15626;BMP180;7912;51.376;6.126;2022-08-21T10:28:18;101326.00;;;34.80
15626;BMP180;7912;51.376;6.126;2022-08-21T10:30:57;101316.00;;;35.20
15626;BMP180;7912;51.376;6.126;2022-08-21T10:37:22;101319.00;;;35.30
15626;BMP180;7912;51.376;6.126;2022-08-21T10:42:43;101323.00;;;35.00
15626;BMP180;7912;51.376;6.126;2022-08-21T10:45:57;101331.00;;;34.50
15626;BMP180;7912;51.376;6.126;2022-08-21T10:49:03;101337.00;;;34.60
15626;BMP180;7912;51.376;6.126;2022-08-21T10:55:10;101337.00;;;34.50
15626;BMP180;7912;51.376;6.126;2022-08-21T10:58:02;101338.00;;;34.40
15626;BMP180;7912;51.376;6.126;2022-08-21T11:00:43;101332.00;;;34.50
15626;BMP180;7912;51.376;6.126;2022-08-21T11:04:09;101337.00;;;34.60
15626;BMP180;7912;51.376;6.126;2022-08-21T11:06:46;101338.00;;;34.60
15626;BMP180;7912;51.376;6.126;2022-08-21T11:09:18;101340.00;;;34.50
15626;BMP180;7912;51.376;6.126;2022-08-21T11:12:07;101333.00;;;34.60
15626;BMP180;7912;51.376;6.126;2022-08-21T11:14:56;101324.00;;;34.80
15626;BMP180;7912;51.376;6.126;2022-08-21T11:17:43;101329.00;;;35.00
15626;BMP180;7912;51.376;6.126;2022-08-21T11:20:50;101330.00;;;35.10
15626;BMP180;7912;51.376;6.126;2022-08-21T11:23:38;101327.00;;;34.90
15626;BMP180;7912;51.376;6.126;2022-08-21T11:26:39;101333.00;;;34.40
15626;BMP180;7912;51.376;6.126;2022-08-21T11:29:27;101324.00;;;34.10
15626;BMP180;7912;51.376;6.126;2022-08-21T11:46:51;101320.00;;;34.90
15626;BMP180;7912;51.376;6.126;2022-08-21T11:52:49;101322.00;;;35.30
15626;BMP180;7912;51.376;6.126;2022-08-21T11:55:48;101317.00;;;34.90
15626;BMP180;7912;51.376;6.126;2022-08-21T11:58:28;101315.00;;;34.70
15626;BMP180;7912;51.376;6.126;2022-08-21T12:01:16;101323.00;;;34.50
15626;BMP180;7912;51.376;6.126;2022-08-21T12:04:30;101315.00;;;34.30
15626;BMP180;7912;51.376;6.126;2022-08-21T12:07:43;101319.00;;;34.20
15626;BMP180;7912;51.376;6.126;2022-08-21T12:10:17;101315.00;;;34.40
15626;BMP180;7912;51.376;6.126;2022-08-21T12:12:48;101312.00;;;35.00
15626;BMP180;7912;51.376;6.126;2022-08-21T12:21:20;101314.00;;;36.60
15626;BMP180;7912;51.376;6.126;2022-08-21T12:24:00;101315.00;;;36.70
15626;BMP180;7912;51.376;6.126;2022-08-21T12:26:46;101314.00;;;36.80
15626;BMP180;7912;51.376;6.126;2022-08-21T12:29:26;101316.00;;;36.80
15626;BMP180;7912;51.376;6.126;2022-08-21T12:34:48;101326.00;;;36.40
15626;BMP180;7912;51.376;6.126;2022-08-21T12:37:38;101317.00;;;36.10
15626;BMP180;7912;51.376;6.126;2022-08-21T12:41:00;101325.00;;;35.70
15626;BMP180;7912;51.376;6.126;2022-08-21T12:43:19;101329.00;;;35.30
15626;BMP180;7912;51.376;6.126;2022-08-21T12:45:50;101327.00;;;35.10
15626;BMP180;7912;51.376;6.126;2022-08-21T12:48:29;101327.00;;;35.10
15626;BMP180;7912;51.376;6.126;2022-08-21T12:51:11;101329.00;;;35.10
15626;BMP180;7912;51.376;6.126;2022-08-21T12:53:55;101322.00;;;35.20
15626;BMP180;7912;51.376;6.126;2022-08-21T12:56:27;101331.00;;;35.50
15626;BMP180;7912;51.376;6.126;2022-08-21T12:59:11;101325.00;;;35.60
15626;BMP180;7912;51.376;6.126;2022-08-21T13:01:48;101323.00;;;35.40
15626;BMP180;7912;51.376;6.126;2022-08-21T13:04:26;101325.00;;;35.10
15626;BMP180;7912;51.376;6.126;2022-08-21T13:06:58;101310.00;;;35.20
15626;BMP180;7912;51.376;6.126;2022-08-21T13:09:29;101318.00;;;35.50
15626;BMP180;7912;51.376;6.126;2022-08-21T13:11:58;101313.00;;;35.40
15626;BMP180;7912;51.376;6.126;2022-08-21T13:14:37;101312.00;;;35.10
15626;BMP180;7912;51.376;6.126;2022-08-21T13:17:14;101306.00;;;35.10
15626;BMP180;7912;51.376;6.126;2022-08-21T13:19:57;101304.00;;;35.20
15626;BMP180;7912;51.376;6.126;2022-08-21T13:22:27;101305.00;;;35.30
15626;BMP180;7912;51.376;6.126;2022-08-21T13:25:02;101296.00;;;35.40
15626;BMP180;7912;51.376;6.126;2022-08-21T13:27:33;101297.00;;;35.80
15626;BMP180;7912;51.376;6.126;2022-08-21T13:30:20;101296.00;;;36.60
15626;BMP180;7912;51.376;6.126;2022-08-21T13:32:58;101286.00;;;37.40
15626;BMP180;7912;51.376;6.126;2022-08-21T13:35:45;101285.00;;;38.10
15626;BMP180;7912;51.376;6.126;2022-08-21T13:38:15;101274.00;;;38.70
15626;BMP180;7912;51.376;6.126;2022-08-21T13:40:54;101287.00;;;38.70
15626;BMP180;7912;51.376;6.126;2022-08-21T13:43:30;101290.00;;;38.60
15626;BMP180;7912;51.376;6.126;2022-08-21T13:45:58;101278.00;;;38.50
15626;BMP180;7912;51.376;6.126;2022-08-21T13:48:33;101289.00;;;38.60
15626;BMP180;7912;51.376;6.126;2022-08-21T13:51:02;101289.00;;;38.70
15626;BMP180;7912;51.376;6.126;2022-08-21T13:56:32;101288.00;;;38.90
15626;BMP180;7912;51.376;6.126;2022-08-21T13:59:02;101284.00;;;38.90
15626;BMP180;7912;51.376;6.126;2022-08-21T14:01:56;101289.00;;;39.00
15626;BMP180;7912;51.376;6.126;2022-08-21T14:04:42;101284.00;;;38.90
15626;BMP180;7912;51.376;6.126;2022-08-21T14:07:28;101278.00;;;39.00
15626;BMP180;7912;51.376;6.126;2022-08-21T14:09:56;101284.00;;;39.00
15626;BMP180;7912;51.376;6.126;2022-08-21T14:12:38;101282.00;;;39.00
15626;BMP180;7912;51.376;6.126;2022-08-21T14:15:12;101275.00;;;38.70
15626;BMP180;7912;51.376;6.126;2022-08-21T14:17:41;101294.00;;;38.40
15626;BMP180;7912;51.376;6.126;2022-08-21T14:20:25;101290.00;;;38.20
15626;BMP180;7912;51.376;6.126;2022-08-21T14:22:52;101288.00;;;38.00
15626;BMP180;7912;51.376;6.126;2022-08-21T14:30:45;101275.00;;;38.00
15626;BMP180;7912;51.376;6.126;2022-08-21T14:33:25;101273.00;;;37.90
15626;BMP180;7912;51.376;6.126;2022-08-21T14:35:53;101275.00;;;37.90
15626;BMP180;7912;51.376;6.126;2022-08-21T14:38:25;101278.00;;;38.00
15626;BMP180;7912;51.376;6.126;2022-08-21T14:41:03;101276.00;;;38.30
15626;BMP180;7912;51.376;6.126;2022-08-21T14:43:31;101267.00;;;38.40
15626;BMP180;7912;51.376;6.126;2022-08-21T14:46:00;101274.00;;;38.60
15626;BMP180;7912;51.376;6.126;2022-08-21T14:48:28;101275.00;;;38.30
15626;BMP180;7912;51.376;6.126;2022-08-21T14:50:55;101283.00;;;37.90
15626;BMP180;7912;51.376;6.126;2022-08-21T14:53:26;101281.00;;;37.40
15626;BMP180;7912;51.376;6.126;2022-08-21T14:55:54;101285.00;;;37.00
15626;BMP180;7912;51.376;6.126;2022-08-21T14:58:38;101286.00;;;36.70
15626;BMP180;7912;51.376;6.126;2022-08-21T15:01:09;101285.00;;;36.60
15626;BMP180;7912;51.376;6.126;2022-08-21T15:03:38;101277.00;;;36.60
15626;BMP180;7912;51.376;6.126;2022-08-21T15:06:08;101284.00;;;36.50
15626;BMP180;7912;51.376;6.126;2022-08-21T15:08:36;101284.00;;;36.30
15626;BMP180;7912;51.376;6.126;2022-08-21T15:11:06;101276.00;;;36.20
15626;BMP180;7912;51.376;6.126;2022-08-21T15:13:40;101281.00;;;36.00
15626;BMP180;7912;51.376;6.126;2022-08-21T15:16:10;101279.00;;;35.70
15626;BMP180;7912;51.376;6.126;2022-08-21T15:18:38;101294.00;;;35.50
15626;BMP180;7912;51.376;6.126;2022-08-21T15:21:06;101283.00;;;35.30
15626;BMP180;7912;51.376;6.126;2022-08-21T15:23:33;101295.00;;;35.20
15626;BMP180;7912;51.376;6.126;2022-08-21T15:26:09;101282.00;;;35.00
15626;BMP180;7912;51.376;6.126;2022-08-21T15:28:37;101295.00;;;34.80
15626;BMP180;7912;51.376;6.126;2022-08-21T15:31:05;101284.00;;;34.70
15626;BMP180;7912;51.376;6.126;2022-08-21T15:33:34;101288.00;;;34.50
15626;BMP180;7912;51.376;6.126;2022-08-21T15:36:02;101288.00;;;34.30
15626;BMP180;7912;51.376;6.126;2022-08-21T15:38:32;101296.00;;;34.00
15626;BMP180;7912;51.376;6.126;2022-08-21T15:41:03;101289.00;;;33.70
15626;BMP180;7912;51.376;6.126;2022-08-21T15:43:43;101299.00;;;33.40
15626;BMP180;7912;51.376;6.126;2022-08-21T15:46:14;101290.00;;;33.10
15626;BMP180;7912;51.376;6.126;2022-08-21T15:48:43;101295.00;;;32.90
15626;BMP180;7912;51.376;6.126;2022-08-21T15:51:11;101297.00;;;32.80
15626;BMP180;7912;51.376;6.126;2022-08-21T15:53:39;101304.00;;;32.60
15626;BMP180;7912;51.376;6.126;2022-08-21T15:56:21;101302.00;;;32.60